createdAt,value
2022-10-10T00:02:14.475Z,66.17
2022-10-10T00:04:45.214Z,66.51
2022-10-10T00:07:15.029Z,66.97
2022-10-10T00:09:44.762Z,66.93
2022-10-10T00:12:14.837Z,66.86
2022-10-10T00:14:44.588Z,66.76
2022-10-10T00:17:14.071Z,66.88
2022-10-10T00:19:43.817Z,66.95
2022-10-10T00:22:13.381Z,66.89
2022-10-10T00:24:43.119Z,66.83
2022-10-10T00:27:12.854Z,66.95
2022-10-10T00:29:42.593Z,67.09
2022-10-10T00:32:12.243Z,67.30
2022-10-10T00:34:42.152Z,67.14
2022-10-10T00:37:11.876Z,67.53
2022-10-10T00:39:41.607Z,67.58
2022-10-10T00:42:14.053Z,67.37
2022-10-10T00:44:45.534Z,67.46
2022-10-10T00:47:15.345Z,67.83
2022-10-10T00:49:45.947Z,67.58
2022-10-10T00:52:15.429Z,67.39
2022-10-10T00:54:45.132Z,67.60
2022-10-10T00:57:16.047Z,67.63
2022-10-10T00:59:47.398Z,67.57
2022-10-10T01:02:17.260Z,67.71
2022-10-10T01:04:47.434Z,67.51
2022-10-10T01:07:20.205Z,67.85
2022-10-10T01:09:52.490Z,68.09
2022-10-10T01:12:58.252Z,68.08
2022-10-10T01:15:36.760Z,68.27
2022-10-10T01:18:16.424Z,68.33
2022-10-10T01:21:04.034Z,68.18
2022-10-10T01:23:45.728Z,68.36
2022-10-10T01:26:30.077Z,68.20
2022-10-10T01:29:14.655Z,68.16
2022-10-10T01:31:47.587Z,68.89
2022-10-10T01:34:37.687Z,69.00
2022-10-10T01:37:12.887Z,68.58
2022-10-10T01:39:51.125Z,68.97
2022-10-10T01:42:30.076Z,68.97
2022-10-10T01:44:59.900Z,69.30
2022-10-10T01:47:29.620Z,69.01
2022-10-10T01:50:02.406Z,68.88
2022-10-10T01:52:35.474Z,69.57
2022-10-10T01:55:19.794Z,69.19
2022-10-10T01:58:17.806Z,68.88
2022-10-10T02:00:56.430Z,69.16
2022-10-10T02:03:29.224Z,69.45
2022-10-10T02:06:10.688Z,69.71
2022-10-10T02:08:52.378Z,69.81
2022-10-10T02:11:22.696Z,70.21
2022-10-10T02:14:19.488Z,70.16
2022-10-10T02:16:51.869Z,70.07
2022-10-10T02:19:23.735Z,70.54
2022-10-10T02:21:55.415Z,70.54
2022-10-10T02:24:26.393Z,70.61
2022-10-10T02:26:59.205Z,70.37
2022-10-10T02:29:31.980Z,70.01
2022-10-10T02:32:16.861Z,70.35
2022-10-10T02:34:49.638Z,70.51
2022-10-10T02:37:20.560Z,70.72
2022-10-10T02:39:53.831Z,70.71
2022-10-10T02:42:24.805Z,71.19
2022-10-10T02:44:56.294Z,70.84
2022-10-10T02:47:26.102Z,71.25
2022-10-10T02:49:55.873Z,71.48
2022-10-10T02:52:25.640Z,71.33
2022-10-10T02:54:55.137Z,71.33
2022-10-10T02:57:24.882Z,71.45
2022-10-10T02:59:54.643Z,71.60
2022-10-10T03:02:24.366Z,71.37
2022-10-10T03:04:54.112Z,71.33
2022-10-10T03:07:23.856Z,71.13
2022-10-10T03:09:54.042Z,71.56
2022-10-10T03:12:24.198Z,71.64
2022-10-10T03:14:53.944Z,72.00
2022-10-10T03:17:23.678Z,72.32
2022-10-10T03:19:53.434Z,71.69
2022-10-10T03:22:23.057Z,71.84
2022-10-10T03:24:52.776Z,72.15
2022-10-10T03:27:22.523Z,72.05
2022-10-10T03:29:52.283Z,72.05
2022-10-10T03:32:22.243Z,72.03
2022-10-10T03:34:51.976Z,72.03
2022-10-10T03:37:21.713Z,72.13
2022-10-10T03:39:51.433Z,72.31
2022-10-10T03:42:21.214Z,72.54
2022-10-10T03:44:50.983Z,72.88
2022-10-10T03:47:20.717Z,72.76
2022-10-10T03:49:50.478Z,73.01
2022-10-10T03:52:21.841Z,72.59
2022-10-10T03:54:51.588Z,72.23
2022-10-10T03:57:21.053Z,72.57
2022-10-10T03:59:50.789Z,72.89
2022-10-10T04:02:20.390Z,73.05
2022-10-10T04:04:50.130Z,72.79
2022-10-10T04:07:20.360Z,72.93
2022-10-10T04:09:50.219Z,73.17
2022-10-10T04:12:19.936Z,73.13
2022-10-10T04:14:49.675Z,72.98
2022-10-10T04:17:19.488Z,73.17
2022-10-10T04:19:49.503Z,73.59
2022-10-10T04:22:19.242Z,73.59
2022-10-10T04:24:49.014Z,73.29
2022-10-10T04:27:18.764Z,73.48
2022-10-10T04:29:48.515Z,73.68
2022-10-10T04:32:18.010Z,73.70
2022-10-10T04:34:47.759Z,73.81
2022-10-10T04:37:17.522Z,74.44
2022-10-10T04:39:47.556Z,74.31
2022-10-10T04:42:17.302Z,73.78
2022-10-10T04:44:47.029Z,73.98
2022-10-10T04:47:16.783Z,74.61
2022-10-10T04:49:46.516Z,74.92
2022-10-10T04:52:16.189Z,74.43
2022-10-10T04:54:45.939Z,74.61
2022-10-10T04:57:15.663Z,74.43
2022-10-10T04:59:45.393Z,74.67
2022-10-10T05:02:15.199Z,74.31
2022-10-10T05:04:45.298Z,73.99
2022-10-10T05:07:15.108Z,74.65
2022-10-10T05:09:44.889Z,74.65
2022-10-10T05:12:14.858Z,74.42
2022-10-10T05:14:47.961Z,74.12
2022-10-10T05:17:16.369Z,73.71
2022-10-10T05:19:46.181Z,74.29
2022-10-10T05:22:15.974Z,74.74
2022-10-10T05:24:45.703Z,73.67
2022-10-10T05:27:15.497Z,74.33
2022-10-10T05:29:45.229Z,74.87
2022-10-10T05:32:14.681Z,74.92
2022-10-10T05:34:44.714Z,74.82
2022-10-10T05:37:14.475Z,74.38
2022-10-10T05:39:44.287Z,74.51
2022-10-10T05:42:14.318Z,74.61
2022-10-10T05:44:44.058Z,74.54
2022-10-10T05:47:14.786Z,74.79
2022-10-10T05:49:44.790Z,75.28
2022-10-10T05:52:14.534Z,75.43
2022-10-10T05:54:44.575Z,74.75
2022-10-10T05:57:16.478Z,75.25
2022-10-10T05:59:46.371Z,75.00
2022-10-10T06:02:16.539Z,74.64
2022-10-10T06:04:46.558Z,75.99
2022-10-10T06:07:16.181Z,75.38
2022-10-10T06:09:45.966Z,75.21
2022-10-10T06:12:15.405Z,75.56
2022-10-10T06:14:45.241Z,75.74
2022-10-10T06:17:14.980Z,75.12
2022-10-10T06:19:44.704Z,75.16
2022-10-10T06:22:14.466Z,75.47
2022-10-10T06:24:44.226Z,75.08
2022-10-10T06:27:13.953Z,75.61
2022-10-10T06:29:43.743Z,75.22
2022-10-10T06:32:13.405Z,76.17
2022-10-10T06:34:43.133Z,76.96
2022-10-10T06:37:12.953Z,75.72
2022-10-10T06:39:42.698Z,76.01
2022-10-10T06:42:12.448Z,75.98
2022-10-10T06:44:42.556Z,76.02
2022-10-10T06:47:12.885Z,76.20
2022-10-10T06:49:42.754Z,75.35
2022-10-10T06:52:12.649Z,75.35
2022-10-10T06:54:42.672Z,75.50
2022-10-10T06:57:12.422Z,75.95
2022-10-10T06:59:42.164Z,74.94
2022-10-10T07:02:15.425Z,75.24
2022-10-10T07:04:45.159Z,75.57
2022-10-10T07:07:14.918Z,74.64
2022-10-10T07:09:44.669Z,74.76
2022-10-10T07:12:14.105Z,74.67
2022-10-10T07:14:43.856Z,74.89
2022-10-10T07:17:13.583Z,74.13
2022-10-10T07:19:43.359Z,73.94
2022-10-10T07:22:12.982Z,73.22
2022-10-10T07:24:42.728Z,72.40
2022-10-10T07:27:12.483Z,72.81
2022-10-10T07:29:42.724Z,71.78
2022-10-10T07:32:14.286Z,71.91
2022-10-10T07:34:44.110Z,71.16
2022-10-10T07:37:13.857Z,71.13
2022-10-10T07:39:43.926Z,70.45
2022-10-10T07:42:13.727Z,70.11
2022-10-10T07:44:43.782Z,69.42
2022-10-10T07:47:13.819Z,69.56
2022-10-10T07:49:43.321Z,69.41
2022-10-10T07:52:13.058Z,69.77
2022-10-10T07:54:42.795Z,69.30
2022-10-10T07:57:12.593Z,69.15
2022-10-10T07:59:43.966Z,68.75
2022-10-10T08:02:13.552Z,68.85
2022-10-10T08:04:43.477Z,67.27
2022-10-10T08:07:13.220Z,67.27
2022-10-10T08:09:42.998Z,67.87
2022-10-10T08:12:14.506Z,68.26
2022-10-10T08:14:44.257Z,68.50
2022-10-10T08:17:14.008Z,67.48
2022-10-10T08:19:43.760Z,67.64
2022-10-10T08:22:13.595Z,67.60
2022-10-10T08:24:43.318Z,68.27
2022-10-10T08:27:14.525Z,68.18
2022-10-10T08:29:44.551Z,68.07
2022-10-10T08:32:14.643Z,67.45
2022-10-10T08:34:44.407Z,67.45
2022-10-10T08:37:14.159Z,67.84
2022-10-10T08:39:43.900Z,68.04
2022-10-10T08:42:16.429Z,68.37
2022-10-10T08:44:49.272Z,68.53
2022-10-10T08:47:22.061Z,68.28
2022-10-10T08:49:54.904Z,67.85
2022-10-10T08:52:36.476Z,66.92
2022-10-10T08:55:16.225Z,66.62
2022-10-10T08:57:57.836Z,66.53
2022-10-10T09:00:32.259Z,65.86
2022-10-10T09:03:02.045Z,65.86
2022-10-10T09:05:44.059Z,65.83
2022-10-10T09:08:37.185Z,65.18
2022-10-10T09:11:35.238Z,64.30
2022-10-10T09:14:24.064Z,64.02
2022-10-10T09:17:05.387Z,64.02
2022-10-10T09:19:47.063Z,62.93
2022-10-10T09:22:22.706Z,62.95
2022-10-10T09:24:55.794Z,62.85
2022-10-10T09:27:28.569Z,61.81
2022-10-10T09:30:04.151Z,61.69
2022-10-10T09:32:37.001Z,62.14
2022-10-10T09:35:28.191Z,62.12
2022-10-10T09:38:20.454Z,61.79
2022-10-10T09:40:59.552Z,61.23
2022-10-10T09:43:32.468Z,59.72
2022-10-10T09:46:02.725Z,59.72
2022-10-10T09:48:35.288Z,58.61
2022-10-10T09:51:07.774Z,58.18
2022-10-10T09:53:37.864Z,57.63
2022-10-10T09:56:27.521Z,58.15
2022-10-10T09:58:58.112Z,57.28
2022-10-10T10:01:31.522Z,57.59
2022-10-10T10:04:34.546Z,56.36
2022-10-10T10:06:53.316Z,55.65
2022-10-10T10:09:23.962Z,55.67
2022-10-10T10:11:58.363Z,55.94
2022-10-10T10:14:31.053Z,55.83
2022-10-10T10:17:12.437Z,56.27
2022-10-10T10:19:45.364Z,56.05
2022-10-10T10:22:27.191Z,56.15
2022-10-10T10:24:56.931Z,56.15
2022-10-10T10:27:29.603Z,55.43
2022-10-10T10:30:00.179Z,55.22
2022-10-10T10:32:41.623Z,55.87
2022-10-10T10:35:23.171Z,55.44
2022-10-10T10:38:13.830Z,55.87
2022-10-10T10:41:01.502Z,55.89
2022-10-10T10:44:05.939Z,55.82
2022-10-10T10:46:59.646Z,55.71
2022-10-10T10:49:49.904Z,55.56
2022-10-10T10:52:25.368Z,55.51
2022-10-10T10:55:03.882Z,55.49
2022-10-10T10:58:04.166Z,55.10
2022-10-10T11:00:47.416Z,54.47
2022-10-10T11:03:27.939Z,54.47
2022-10-10T11:05:47.751Z,54.80
2022-10-10T11:08:29.343Z,55.18
2022-10-10T11:11:13.845Z,54.08
2022-10-10T11:14:07.702Z,54.11
2022-10-10T11:16:49.188Z,54.11
2022-10-10T11:19:25.266Z,52.84
2022-10-10T11:22:14.007Z,53.43
2022-10-10T11:24:51.161Z,53.43
2022-10-10T11:27:43.056Z,52.91
2022-10-10T11:30:21.132Z,52.58
2022-10-10T11:32:56.856Z,52.38
2022-10-10T11:35:39.685Z,51.63
2022-10-10T11:38:20.961Z,52.26
2022-10-10T11:40:56.415Z,52.67
2022-10-10T11:43:34.321Z,52.66
2022-10-10T11:46:09.865Z,51.77
2022-10-10T11:48:42.913Z,51.47
2022-10-10T11:51:27.457Z,51.49
2022-10-10T11:54:00.229Z,51.35
2022-10-10T11:56:35.469Z,51.04
2022-10-10T11:59:29.280Z,51.04
2022-10-10T12:02:01.651Z,50.78
2022-10-10T12:04:38.100Z,50.79
2022-10-10T12:07:11.004Z,50.23
2022-10-10T12:09:43.711Z,50.01
2022-10-10T12:12:31.051Z,49.16
2022-10-10T12:15:03.900Z,49.16
2022-10-10T12:17:39.763Z,50.26
2022-10-10T12:20:11.144Z,51.38
2022-10-10T12:22:40.831Z,52.95
2022-10-10T12:25:43.196Z,52.95
2022-10-10T12:28:18.719Z,53.44
2022-10-10T12:31:00.692Z,52.64
2022-10-10T12:33:36.052Z,52.64
2022-10-10T12:36:24.107Z,53.63
2022-10-10T12:39:10.101Z,54.25
2022-10-10T12:41:56.279Z,55.33
2022-10-10T12:44:37.584Z,55.07
2022-10-10T12:47:16.409Z,55.84
2022-10-10T12:50:00.755Z,57.10
2022-10-10T12:52:48.319Z,57.61
2022-10-10T12:58:05.929Z,57.88
2022-10-10T13:00:44.326Z,58.42
2022-10-10T13:03:29.062Z,58.67
2022-10-10T13:06:01.840Z,59.99
2022-10-10T13:08:32.132Z,60.72
2022-10-10T13:11:07.709Z,61.55
2022-10-10T13:13:37.987Z,61.92
2022-10-10T13:16:14.951Z,61.82
2022-10-10T13:18:55.881Z,61.53
2022-10-10T13:21:31.298Z,62.40
2022-10-10T13:24:04.470Z,62.67
2022-10-10T13:26:40.493Z,62.44
2022-10-10T13:29:25.456Z,62.89
2022-10-10T13:31:58.391Z,63.73
2022-10-10T13:34:30.868Z,64.14
2022-10-10T13:37:03.549Z,64.16
2022-10-10T13:39:36.481Z,64.05
2022-10-10T13:42:11.642Z,65.31
2022-10-10T13:44:54.836Z,64.84
2022-10-10T13:47:48.507Z,64.70
2022-10-10T13:50:35.488Z,64.58
2022-10-10T13:53:31.439Z,64.82
2022-10-10T13:56:13.224Z,64.41
2022-10-10T13:58:48.896Z,65.77
2022-10-10T14:01:21.423Z,67.06
2022-10-10T14:03:52.750Z,66.99
2022-10-10T14:06:24.682Z,67.00
2022-10-10T14:08:57.959Z,66.68
2022-10-10T14:11:30.679Z,66.73
2022-10-10T14:14:06.226Z,68.05
2022-10-10T14:16:35.996Z,68.71
2022-10-10T14:19:08.775Z,69.26
2022-10-10T14:21:38.594Z,68.78
2022-10-10T14:24:10.272Z,69.36
2022-10-10T14:26:40.029Z,70.07
2022-10-10T14:29:12.810Z,70.21
2022-10-10T14:31:43.284Z,70.99
2022-10-10T14:34:13.968Z,70.99
2022-10-10T14:36:49.360Z,71.80
2022-10-10T14:39:20.140Z,71.68
2022-10-10T14:41:49.967Z,72.52
2022-10-10T14:44:19.413Z,72.97
2022-10-10T14:46:49.165Z,73.52
2022-10-10T14:49:22.619Z,74.23
2022-10-10T14:51:52.364Z,74.24
2022-10-10T14:54:23.233Z,74.73
2022-10-10T14:57:08.881Z,77.92
2022-10-10T14:59:48.949Z,79.15
2022-10-10T15:01:56.727Z,77.58
2022-10-10T15:04:26.521Z,78.24
2022-10-10T15:07:12.339Z,78.05
2022-10-10T15:09:41.549Z,77.45
2022-10-10T15:11:59.226Z,77.45
2022-10-10T15:14:28.964Z,77.69
2022-10-10T15:16:58.781Z,77.69
2022-10-10T15:19:28.510Z,77.59
2022-10-10T15:21:58.244Z,77.66
2022-10-10T15:24:28.261Z,77.94
2022-10-10T15:26:58.020Z,77.25
2022-10-10T15:29:27.826Z,76.06
2022-10-10T15:31:58.671Z,75.95
2022-10-10T15:34:28.131Z,75.94
2022-10-10T15:36:57.851Z,75.80
2022-10-10T15:39:28.789Z,75.84
2022-10-10T15:42:07.101Z,75.11
2022-10-10T15:44:30.800Z,75.18
2022-10-10T15:47:00.522Z,74.12
2022-10-10T15:49:30.327Z,73.70
2022-10-10T15:52:00.042Z,73.31
2022-10-10T15:54:29.758Z,73.29
2022-10-10T15:56:59.490Z,74.20
2022-10-10T15:59:29.387Z,73.35
2022-10-10T16:01:59.130Z,73.35
2022-10-10T16:04:28.639Z,73.07
2022-10-10T16:07:24.259Z,72.76
2022-10-10T16:09:30.379Z,72.70
2022-10-10T16:12:00.987Z,73.11
2022-10-10T16:14:30.896Z,71.99
2022-10-10T16:17:00.681Z,72.11
2022-10-10T16:19:30.498Z,72.19
2022-10-10T16:22:00.551Z,71.55
2022-10-10T16:24:30.568Z,71.09
2022-10-10T16:27:01.961Z,71.05
2022-10-10T16:29:32.014Z,70.33
2022-10-10T16:32:01.760Z,71.04
2022-10-10T16:34:31.800Z,70.61
2022-10-10T16:37:01.554Z,70.42
2022-10-10T16:39:31.339Z,70.49
2022-10-10T16:42:01.170Z,70.27
2022-10-10T16:44:31.101Z,71.20
2022-10-10T16:47:00.844Z,71.18
2022-10-10T16:49:32.268Z,71.43
2022-10-10T16:52:02.134Z,71.45
2022-10-10T16:54:32.181Z,71.75
2022-10-10T16:57:02.197Z,72.18
2022-10-10T16:59:34.020Z,72.06
2022-10-10T17:02:03.846Z,72.10
2022-10-10T17:04:34.066Z,73.02
2022-10-10T17:07:03.811Z,72.70
2022-10-10T17:09:33.576Z,72.16
2022-10-10T17:12:03.518Z,72.16
2022-10-10T17:14:33.344Z,72.58
2022-10-10T17:17:12.482Z,72.58
2022-10-10T17:19:35.247Z,73.51
2022-10-10T17:22:06.836Z,73.67
2022-10-10T17:24:37.238Z,73.25
2022-10-10T17:27:07.028Z,73.54
2022-10-10T17:29:37.213Z,73.79
2022-10-10T17:32:09.032Z,73.84
2022-10-10T17:34:38.892Z,73.82
2022-10-10T17:37:08.911Z,73.78
2022-10-10T17:39:39.047Z,74.62
2022-10-10T17:42:08.833Z,74.62
2022-10-10T17:44:44.830Z,74.58
2022-10-10T17:47:10.203Z,74.73
2022-10-10T17:49:41.583Z,74.44
2022-10-10T17:52:15.573Z,74.74
2022-10-10T17:54:45.013Z,74.89
2022-10-10T17:57:14.600Z,74.86
2022-10-10T17:59:44.346Z,74.99
2022-10-10T18:02:16.375Z,75.26
2022-10-10T18:04:46.103Z,75.23
2022-10-10T18:07:18.126Z,75.36
2022-10-10T18:09:49.372Z,75.47
2022-10-10T18:12:19.858Z,76.42
2022-10-10T18:14:49.609Z,76.12
2022-10-10T18:17:19.600Z,76.33
2022-10-10T18:19:49.343Z,76.57
2022-10-10T18:22:19.151Z,76.26
2022-10-10T18:24:48.920Z,76.33
2022-10-10T18:27:20.333Z,76.12
2022-10-10T18:29:50.096Z,75.93
2022-10-10T18:32:19.553Z,75.76
2022-10-10T18:34:49.316Z,76.12
2022-10-10T18:37:19.127Z,76.54
2022-10-10T18:39:49.331Z,76.74
2022-10-10T18:42:19.103Z,76.06
2022-10-10T18:44:48.954Z,76.76
2022-10-10T18:47:20.718Z,76.81
2022-10-10T18:49:50.435Z,76.71
2022-10-10T18:52:20.542Z,76.48
2022-10-10T18:54:50.831Z,76.48
2022-10-10T18:57:20.591Z,76.22
2022-10-10T18:59:50.717Z,76.18
2022-10-10T19:02:20.237Z,75.82
2022-10-10T19:04:50.880Z,75.98
2022-10-10T19:07:20.641Z,76.04
2022-10-10T19:09:50.835Z,75.93
2022-10-10T19:12:20.432Z,75.51
2022-10-10T19:14:51.552Z,75.58
2022-10-10T19:17:21.291Z,75.68
2022-10-10T19:19:52.525Z,75.81
2022-10-10T19:22:22.283Z,76.41
2022-10-10T19:24:53.690Z,75.99
2022-10-10T19:27:23.449Z,76.11
2022-10-10T19:29:53.567Z,75.42
2022-10-10T19:32:23.642Z,75.65
2022-10-10T19:34:53.436Z,75.75
2022-10-10T19:37:23.202Z,75.77
2022-10-10T19:39:53.027Z,75.80
2022-10-10T19:42:22.526Z,75.68
2022-10-10T19:44:52.792Z,75.11
2022-10-10T19:47:22.592Z,75.95
2022-10-10T19:49:52.389Z,76.02
2022-10-10T19:52:22.900Z,75.53
2022-10-10T19:54:54.129Z,75.25
2022-10-10T19:57:23.894Z,75.26
2022-10-10T19:59:53.887Z,74.73
2022-10-10T20:02:23.698Z,74.91
2022-10-10T20:04:53.451Z,75.38
2022-10-10T20:07:23.194Z,75.78
2022-10-10T20:09:54.222Z,75.77
2022-10-10T20:12:24.005Z,75.97
2022-10-10T20:14:53.842Z,75.37
2022-10-10T20:17:23.636Z,75.85
2022-10-10T20:19:53.640Z,75.07
2022-10-10T20:22:24.124Z,75.01
2022-10-10T20:24:53.933Z,75.70
2022-10-10T20:27:26.603Z,75.52
2022-10-10T20:29:55.046Z,75.47
2022-10-10T20:32:24.686Z,75.56
2022-10-10T20:34:54.205Z,76.02
2022-10-10T20:37:24.241Z,75.78
2022-10-10T20:39:54.022Z,75.77
2022-10-10T20:42:23.836Z,75.58
2022-10-10T20:44:53.581Z,75.28
2022-10-10T20:47:23.407Z,75.55
2022-10-10T20:49:53.168Z,75.18
2022-10-10T20:52:22.910Z,75.51
2022-10-10T20:54:54.042Z,76.27
2022-10-10T20:57:24.126Z,76.02
2022-10-10T20:59:53.876Z,75.96
2022-10-10T21:02:23.613Z,75.22
2022-10-10T21:04:53.443Z,75.71
2022-10-10T21:07:23.260Z,75.42
2022-10-10T21:09:53.008Z,75.18
2022-10-10T21:12:22.744Z,74.97
2022-10-10T21:14:52.875Z,74.58
2022-10-10T21:17:22.673Z,75.38
2022-10-10T21:19:52.414Z,75.53
2022-10-10T21:22:22.062Z,75.97
2022-10-10T21:24:51.791Z,75.77
2022-10-10T21:27:21.528Z,75.77
2022-10-10T21:29:51.057Z,75.75
2022-10-10T21:32:20.817Z,75.62
2022-10-10T21:34:55.674Z,74.80
2022-10-10T21:37:22.592Z,74.87
2022-10-10T21:39:52.628Z,75.55
2022-10-10T21:42:22.484Z,76.31
2022-10-10T21:44:52.479Z,76.87
2022-10-10T21:47:22.252Z,75.95
2022-10-10T21:49:52.380Z,75.83
2022-10-10T21:52:22.236Z,76.24
2022-10-10T21:54:52.406Z,75.41
2022-10-10T21:57:22.164Z,75.43
2022-10-10T21:59:51.645Z,74.94
2022-10-10T22:02:21.480Z,75.57
2022-10-10T22:04:52.468Z,75.66
2022-10-10T22:07:22.212Z,75.70
2022-10-10T22:09:51.951Z,75.96
2022-10-10T22:12:21.430Z,76.16
2022-10-10T22:14:51.261Z,76.09
2022-10-10T22:17:20.996Z,76.32
2022-10-10T22:19:50.735Z,75.62
2022-10-10T22:22:20.645Z,75.73
2022-10-10T22:24:50.481Z,75.61
2022-10-10T22:27:20.533Z,75.35
2022-10-10T22:29:50.293Z,75.45
2022-10-10T22:32:19.727Z,75.58
2022-10-10T22:34:51.217Z,75.85
2022-10-10T22:37:20.993Z,75.78
2022-10-10T22:39:50.800Z,75.89
2022-10-10T22:42:20.614Z,75.99
2022-10-10T22:44:50.433Z,76.04
2022-10-10T22:47:20.536Z,75.75
2022-10-10T22:49:50.318Z,75.46
2022-10-10T22:52:20.007Z,76.02
2022-10-10T22:54:50.121Z,75.86
2022-10-10T22:57:19.845Z,76.59
2022-10-10T22:59:49.658Z,76.08
2022-10-10T23:02:19.713Z,75.58
2022-10-10T23:04:49.447Z,75.73
2022-10-10T23:07:22.262Z,75.90
2022-10-10T23:09:51.996Z,75.86
2022-10-10T23:12:21.752Z,75.96
2022-10-10T23:14:51.563Z,74.98
2022-10-10T23:17:21.303Z,75.32
2022-10-10T23:19:51.040Z,77.01
2022-10-10T23:22:20.727Z,76.83
2022-10-10T23:24:50.222Z,77.00
2022-10-10T23:27:19.989Z,76.56
2022-10-10T23:29:50.026Z,75.83
2022-10-10T23:32:19.836Z,75.78
2022-10-10T23:34:49.815Z,75.72
2022-10-10T23:37:19.626Z,75.50
2022-10-10T23:39:49.348Z,75.54
2022-10-10T23:42:19.091Z,76.52
2022-10-10T23:44:48.889Z,76.60
2022-10-10T23:47:18.689Z,76.58
2022-10-10T23:49:48.442Z,76.03
2022-10-10T23:52:18.363Z,75.87
2022-10-10T23:54:48.420Z,75.46
2022-10-10T23:57:18.165Z,75.31
2022-10-10T23:59:48.196Z,76.00
